createdAt,value
2018-12-08T00:01:28.534Z,48.06
2018-12-08T00:06:31.011Z,48.24
2018-12-08T00:11:33.529Z,48.51
2018-12-08T00:16:36.026Z,48.59
2018-12-08T00:21:38.498Z,48.50
2018-12-08T00:26:40.984Z,48.00
2018-12-08T00:31:44.721Z,48.23
2018-12-08T00:36:47.405Z,48.26
2018-12-08T00:41:49.934Z,48.62
2018-12-08T00:46:52.426Z,48.11
2018-12-08T00:51:55.522Z,48.17
2018-12-08T00:56:58.065Z,48.21
2018-12-08T01:02:00.558Z,48.45
2018-12-08T01:07:03.038Z,48.10
2018-12-08T01:12:05.563Z,48.12
2018-12-08T01:17:08.077Z,48.44
2018-12-08T01:22:10.597Z,48.36
2018-12-08T01:27:13.090Z,48.23
2018-12-08T01:32:16.417Z,48.07
2018-12-08T01:37:18.917Z,48.20
2018-12-08T01:42:21.385Z,48.23
2018-12-08T01:47:23.852Z,48.18
2018-12-08T01:52:26.374Z,48.47
2018-12-08T01:57:28.895Z,48.21
2018-12-08T02:02:31.362Z,48.11
2018-12-08T02:07:33.881Z,48.21
2018-12-08T02:12:36.377Z,48.62
2018-12-08T02:17:38.873Z,48.19
2018-12-08T02:22:41.353Z,48.08
2018-12-08T02:27:43.827Z,48.00
2018-12-08T02:32:46.290Z,48.38
2018-12-08T02:37:48.759Z,48.03
2018-12-08T02:42:52.046Z,48.50
2018-12-08T02:47:54.530Z,48.31
2018-12-08T02:52:57.470Z,48.41
2018-12-08T02:57:59.968Z,48.34
2018-12-08T03:03:02.474Z,48.44
2018-12-08T03:08:05.073Z,47.86
2018-12-08T03:13:07.549Z,48.31
2018-12-08T03:18:10.122Z,48.20
2018-12-08T03:23:12.686Z,47.88
2018-12-08T03:28:15.157Z,48.29
2018-12-08T03:33:17.622Z,48.10
2018-12-08T03:38:20.270Z,47.83
2018-12-08T03:43:22.921Z,47.86
2018-12-08T03:48:25.418Z,47.92
2018-12-08T03:53:28.648Z,48.14
2018-12-08T03:58:31.171Z,47.70
2018-12-08T04:03:33.645Z,47.96
2018-12-08T04:08:36.163Z,47.73
2018-12-08T04:13:38.639Z,47.80
2018-12-08T04:18:41.141Z,47.92
2018-12-08T04:23:43.630Z,47.87
2018-12-08T04:28:46.133Z,47.57
2018-12-08T04:33:49.395Z,47.95
2018-12-08T04:38:51.868Z,47.56
2018-12-08T04:43:54.434Z,47.80
2018-12-08T04:48:56.910Z,47.66
2018-12-08T04:53:59.389Z,47.45
2018-12-08T04:59:01.886Z,47.83
2018-12-08T05:04:04.415Z,47.56
2018-12-08T05:09:07.122Z,48.04
2018-12-08T05:14:09.613Z,47.88
2018-12-08T05:19:12.081Z,47.79
2018-12-08T05:24:15.121Z,47.47
2018-12-08T05:29:17.617Z,47.48
2018-12-08T05:34:20.087Z,47.73
2018-12-08T05:39:22.613Z,47.95
2018-12-08T05:44:25.079Z,47.74
2018-12-08T05:49:27.922Z,47.29
2018-12-08T05:54:30.614Z,47.59
2018-12-08T05:59:33.637Z,47.46
2018-12-08T06:04:36.585Z,47.77
2018-12-08T06:09:39.090Z,47.53
2018-12-08T06:14:41.588Z,47.46
2018-12-08T06:19:44.094Z,47.38
2018-12-08T06:24:46.591Z,47.42
2018-12-08T06:29:49.347Z,47.81
2018-12-08T06:34:51.985Z,47.81
2018-12-08T06:39:54.498Z,47.37
2018-12-08T06:44:57.129Z,47.39
2018-12-08T06:49:59.701Z,47.48
2018-12-08T06:55:02.322Z,48.06
2018-12-08T07:00:06.089Z,47.71
2018-12-08T07:05:08.613Z,47.84
2018-12-08T07:10:11.082Z,48.23
2018-12-08T07:15:13.574Z,47.82
2018-12-08T07:20:16.069Z,48.31
2018-12-08T07:25:18.609Z,48.38
2018-12-08T07:30:21.134Z,47.88
2018-12-08T07:35:24.531Z,48.31
2018-12-08T07:40:27.050Z,47.89
2018-12-08T07:45:29.534Z,48.22
2018-12-08T07:50:32.020Z,47.52
2018-12-08T07:55:34.514Z,44.19
2018-12-08T08:00:37.001Z,33.47
2018-12-08T08:05:39.502Z,34.30
2018-12-08T08:10:42.000Z,35.29
2018-12-08T08:15:44.465Z,36.57
2018-12-08T08:20:46.933Z,38.07
2018-12-08T08:25:49.521Z,38.65
2018-12-08T08:30:52.017Z,39.66
2018-12-08T08:35:54.481Z,40.18
2018-12-08T08:40:57.190Z,40.54
2018-12-08T08:45:59.902Z,41.77
2018-12-08T08:51:02.437Z,42.15
2018-12-08T08:56:04.990Z,42.88
2018-12-08T09:01:07.454Z,43.00
2018-12-08T09:06:09.955Z,43.50
2018-12-08T09:11:12.461Z,43.23
2018-12-08T09:16:14.953Z,43.46
2018-12-08T09:21:17.422Z,43.33
2018-12-08T09:26:20.602Z,43.33
2018-12-08T09:31:23.099Z,43.36
2018-12-08T09:36:25.674Z,43.32
2018-12-08T09:41:28.280Z,43.61
2018-12-08T09:46:30.754Z,43.22
2018-12-08T09:51:34.062Z,43.20
2018-12-08T09:56:37.014Z,43.25
2018-12-08T10:01:39.541Z,43.53
2018-12-08T10:06:42.173Z,43.66
2018-12-08T10:11:44.704Z,44.19
2018-12-08T10:16:47.545Z,43.69
2018-12-08T10:21:50.157Z,43.78
2018-12-08T10:26:52.809Z,43.95
2018-12-08T10:31:55.297Z,44.12
2018-12-08T10:36:57.962Z,44.45
2018-12-08T10:42:00.557Z,45.12
2018-12-08T10:47:03.130Z,45.05
2018-12-08T10:52:05.783Z,45.52
2018-12-08T10:57:08.286Z,45.76
2018-12-08T11:02:16.409Z,45.90
2018-12-08T11:07:18.901Z,45.73
2018-12-08T11:12:21.674Z,45.80
2018-12-08T11:17:24.281Z,46.15
2018-12-08T11:22:28.482Z,46.51
2018-12-08T11:27:30.980Z,46.55
2018-12-08T11:32:33.473Z,46.32
2018-12-08T11:37:36.298Z,46.44
2018-12-08T11:42:39.245Z,46.46
2018-12-08T11:47:41.966Z,47.41
2018-12-08T11:52:44.681Z,47.42
2018-12-08T11:57:47.238Z,47.92
2018-12-08T12:02:49.734Z,47.82
2018-12-08T12:07:52.206Z,48.16
2018-12-08T12:12:54.702Z,48.41
2018-12-08T12:17:57.468Z,47.52
2018-12-08T12:23:00.078Z,45.83
2018-12-08T12:28:02.793Z,44.90
2018-12-08T12:33:05.376Z,43.67
2018-12-08T12:38:08.002Z,44.09
2018-12-08T12:43:10.633Z,43.61
2018-12-08T12:48:13.129Z,44.20
2018-12-08T12:53:15.801Z,43.71
2018-12-08T12:58:18.321Z,43.85
2018-12-08T13:03:20.793Z,43.46
2018-12-08T13:08:23.269Z,43.34
2018-12-08T13:13:25.765Z,43.08
2018-12-08T13:18:28.387Z,42.90
2018-12-08T13:23:30.986Z,42.97
2018-12-08T13:28:34.294Z,42.91
2018-12-08T13:33:36.886Z,43.21
2018-12-08T13:38:39.462Z,42.94
2018-12-08T13:43:45.785Z,43.71
2018-12-08T13:48:48.330Z,43.88
2018-12-08T13:53:50.846Z,43.67
2018-12-08T13:58:54.875Z,43.72
2018-12-08T14:03:57.573Z,43.92
2018-12-08T14:09:00.181Z,43.98
2018-12-08T14:14:02.785Z,44.55
2018-12-08T14:19:05.353Z,44.55
2018-12-08T14:24:07.864Z,44.44
2018-12-08T14:29:10.355Z,44.75
2018-12-08T14:34:13.830Z,44.89
2018-12-08T14:39:16.345Z,44.44
2018-12-08T14:44:18.859Z,44.56
2018-12-08T14:49:21.429Z,44.75
2018-12-08T14:54:23.926Z,45.09
2018-12-08T14:59:27.174Z,44.98
2018-12-08T15:04:29.649Z,45.20
2018-12-08T15:09:32.133Z,45.11
2018-12-08T15:14:34.837Z,45.12
2018-12-08T15:19:37.360Z,45.06
2018-12-08T15:24:39.977Z,45.63
2018-12-08T15:29:42.877Z,45.63
2018-12-08T15:34:45.349Z,45.77
2018-12-08T15:39:48.641Z,45.50
2018-12-08T15:44:51.195Z,45.46
2018-12-08T15:49:53.686Z,45.74
2018-12-08T15:54:56.256Z,45.99
2018-12-08T15:59:58.917Z,45.56
2018-12-08T16:05:01.441Z,45.68
2018-12-08T16:10:08.466Z,45.61
2018-12-08T16:15:11.005Z,45.91
2018-12-08T16:20:13.757Z,46.39
2018-12-08T16:25:16.354Z,46.32
2018-12-08T16:30:18.950Z,46.10
2018-12-08T16:35:21.438Z,46.37
2018-12-08T16:40:24.034Z,46.36
2018-12-08T16:45:27.189Z,41.83
2018-12-08T16:50:29.837Z,38.23
2018-12-08T16:55:32.345Z,37.29
2018-12-08T17:00:34.921Z,36.48
2018-12-08T17:05:37.449Z,37.34
2018-12-08T17:10:40.007Z,38.36
2018-12-08T17:15:42.486Z,38.75
2018-12-08T17:20:45.004Z,39.44
2018-12-08T17:25:47.686Z,39.68
2018-12-08T17:30:50.281Z,39.98
2018-12-08T17:35:52.877Z,40.46
2018-12-08T17:40:55.477Z,41.56
2018-12-08T17:45:58.013Z,41.93
2018-12-08T17:51:00.768Z,42.18
2018-12-08T17:56:03.462Z,41.87
2018-12-08T18:01:06.022Z,41.97
2018-12-08T18:06:08.537Z,42.00
2018-12-08T18:11:11.049Z,42.15
2018-12-08T18:16:13.577Z,41.86
2018-12-08T18:21:16.213Z,42.23
2018-12-08T18:26:18.920Z,41.91
2018-12-08T18:31:21.405Z,42.20
2018-12-08T18:36:24.014Z,42.15
2018-12-08T18:41:26.590Z,42.07
2018-12-08T18:46:29.089Z,42.20
2018-12-08T18:51:31.687Z,42.25
2018-12-08T18:56:34.177Z,41.95
2018-12-08T19:01:36.670Z,42.27
2018-12-08T19:06:39.228Z,41.96
2018-12-08T19:11:41.753Z,42.26
2018-12-08T19:16:44.349Z,41.92
2018-12-08T19:21:46.874Z,42.06
2018-12-08T19:26:49.438Z,41.88
2018-12-08T19:31:52.141Z,42.10
2018-12-08T19:36:55.779Z,42.49
2018-12-08T19:41:59.108Z,42.21
2018-12-08T19:47:01.618Z,42.34
2018-12-08T19:52:04.253Z,42.39
2018-12-08T19:57:06.748Z,42.74
2018-12-08T20:02:09.255Z,42.45
2018-12-08T20:07:11.826Z,42.62
2018-12-08T20:12:14.317Z,42.87
2018-12-08T20:17:16.808Z,42.76
2018-12-08T20:22:19.370Z,43.22
2018-12-08T20:27:21.858Z,43.08
2018-12-08T20:32:24.392Z,42.96
2018-12-08T20:37:26.877Z,42.80
2018-12-08T20:42:29.473Z,43.13
2018-12-08T20:47:32.095Z,43.28
2018-12-08T20:52:34.765Z,43.31
2018-12-08T20:57:37.257Z,43.18
2018-12-08T21:02:39.738Z,43.24
2018-12-08T21:07:42.341Z,43.58
2018-12-08T21:12:44.833Z,43.34
2018-12-08T21:17:47.341Z,43.69
2018-12-08T21:22:49.861Z,43.74
2018-12-08T21:27:52.413Z,43.87
2018-12-08T21:32:54.902Z,43.73
2018-12-08T21:37:57.410Z,44.01
2018-12-08T21:42:59.993Z,44.04
2018-12-08T21:48:02.482Z,43.86
2018-12-08T21:53:05.077Z,44.24
2018-12-08T21:58:07.546Z,43.85
2018-12-08T22:03:10.167Z,44.19
2018-12-08T22:08:12.655Z,44.03
2018-12-08T22:13:15.137Z,44.45
2018-12-08T22:18:17.638Z,44.08
2018-12-08T22:23:20.127Z,44.67
2018-12-08T22:28:22.623Z,44.09
2018-12-08T22:33:25.212Z,44.48
2018-12-08T22:38:28.673Z,44.85
2018-12-08T22:43:31.529Z,44.60
2018-12-08T22:48:35.044Z,44.61
2018-12-08T22:53:37.529Z,44.54
2018-12-08T22:58:40.129Z,44.40
2018-12-08T23:03:42.638Z,44.83
2018-12-08T23:08:45.223Z,44.48
2018-12-08T23:13:47.705Z,44.47
2018-12-08T23:18:50.405Z,44.74
2018-12-08T23:23:52.922Z,44.90
2018-12-08T23:28:55.401Z,45.04
2018-12-08T23:33:57.981Z,45.06
2018-12-08T23:39:00.530Z,44.94
2018-12-08T23:44:03.128Z,44.82
2018-12-08T23:49:11.198Z,44.76
2018-12-08T23:54:10.305Z,44.92
2018-12-08T23:59:12.797Z,44.87
